Time;durP1;ratioP1;P1;durP2;ratioP2;P2;SDS_P1;SDS_P2;PMS_P1;PMS_P2;Temp;Humidity;BMP_temperature;BMP_pressure;BME280_temperature;BME280_humidity;BME280_pressure;Samples;Min_cycle;Max_cycle;Signal;HPM_P1;HPM_P2
2023/01/23 00:01:16;;;;;;;33.08;12.13;;;;;;;4.69;77.05;101642.53;5032071;28;20100;-79
2023/01/23 00:03:42;;;;;;;152.10;17.50;;;;;;;4.71;76.99;101640.78;5032079;28;20064;-79
2023/01/23 00:06:12;;;;;;;86.22;14.65;;;;;;;4.71;76.88;101650.38;5031777;28;20111;-78
2023/01/23 00:08:39;;;;;;;143.07;16.85;;;;;;;4.72;76.97;101655.59;5031753;28;20071;-79
2023/01/23 00:11:11;;;;;;;83.82;14.40;;;;;;;4.74;76.75;101655.59;5014016;28;20061;-79
2023/01/23 00:13:38;;;;;;;124.13;15.70;;;;;;;4.74;76.81;101659.06;5013890;28;20061;-78
2023/01/23 00:16:06;;;;;;;39.78;14.00;;;;;;;4.75;76.81;101654.72;5031657;28;20061;-79
2023/01/23 00:18:33;;;;;;;169.77;19.15;;;;;;;4.75;76.78;101652.94;5013939;28;20103;-80
2023/01/23 00:21:04;;;;;;;135.25;17.70;;;;;;;4.73;76.76;101649.50;5031411;28;20480;-78
2023/01/23 00:23:32;;;;;;;46.85;14.00;;;;;;;4.74;76.75;101643.41;5013801;28;20103;-79
2023/01/23 00:26:04;;;;;;;143.15;18.05;;;;;;;4.72;76.34;101647.75;5031697;28;20061;-78
2023/01/23 00:28:30;;;;;;;102.30;15.95;;;;;;;4.73;76.88;101648.63;5031450;28;20055;-78
2023/01/23 00:31:14;;;;;;;74.90;13.23;;;;;;;4.70;76.39;101646.88;5031316;28;20097;-78
2023/01/23 00:33:42;;;;;;;57.45;14.55;;;;;;;4.73;76.91;101646.00;5013903;28;20099;-78
2023/01/23 00:36:10;;;;;;;62.55;14.45;;;;;;;4.72;77.01;101636.44;5031128;28;20128;-78
2023/01/23 00:38:37;;;;;;;37.28;14.20;;;;;;;4.73;77.26;101641.66;5013688;28;20057;-78
2023/01/23 00:41:04;;;;;;;44.78;14.15;;;;;;;4.74;77.35;101645.16;5031292;28;20198;-79
2023/01/23 00:43:30;;;;;;;19.23;12.23;;;;;;;4.74;77.15;101640.78;5031173;28;20063;-79
2023/01/23 00:45:57;;;;;;;19.67;12.07;;;;;;;4.77;77.22;101642.50;5031041;28;20406;-79
2023/01/23 00:48:24;;;;;;;17.70;11.85;;;;;;;4.77;77.09;101648.63;5031033;28;20501;-78
2023/01/23 00:50:51;;;;;;;16.27;11.68;;;;;;;4.77;77.17;101651.22;5031291;28;20481;-78
2023/01/23 00:53:18;;;;;;;18.65;11.70;;;;;;;4.76;77.15;101649.50;5031103;28;20084;-79
2023/01/23 00:55:44;;;;;;;16.70;11.32;;;;;;;4.77;77.26;101661.66;5031148;28;20069;-78
2023/01/23 00:58:11;;;;;;;16.63;11.85;;;;;;;4.78;77.23;101652.94;5030937;28;20053;-79
2023/01/23 01:00:38;;;;;;;17.85;11.68;;;;;;;4.80;77.10;101658.19;5030973;28;20153;-78
2023/01/23 01:03:06;;;;;;;18.08;11.45;;;;;;;4.80;77.00;101656.44;5030764;28;20521;-79
2023/01/23 01:05:33;;;;;;;20.02;11.07;;;;;;;4.83;77.40;101660.78;5030476;28;20425;-80
2023/01/23 01:07:59;;;;;;;14.77;11.82;;;;;;;4.82;76.98;101659.91;5030617;28;20422;-79
2023/01/23 01:10:30;;;;;;;16.73;11.50;;;;;;;4.85;77.01;101659.03;5030810;28;20077;-77
2023/01/23 01:12:59;;;;;;;18.13;11.55;;;;;;;4.86;77.30;101665.13;5030724;28;20050;-78
2023/01/23 01:15:26;;;;;;;27.33;11.75;;;;;;;4.88;77.22;101660.75;5030807;28;20061;-78
2023/01/23 01:17:53;;;;;;;18.35;12.30;;;;;;;4.88;77.03;101664.25;5030726;28;20050;-78
2023/01/23 01:20:24;;;;;;;19.63;12.65;;;;;;;4.87;76.65;101657.31;5030792;28;20124;-78
2023/01/23 01:22:56;;;;;;;24.85;12.60;;;;;;;4.89;76.67;101662.47;5030422;28;20065;-78
2023/01/23 01:25:23;;;;;;;37.42;13.00;;;;;;;4.89;76.83;101660.75;5030389;28;20568;-78
2023/01/23 01:27:49;;;;;;;21.65;12.55;;;;;;;4.88;76.73;101668.59;5030459;28;20057;-78
2023/01/23 01:30:17;;;;;;;20.52;12.45;;;;;;;4.86;76.66;101665.97;5030526;28;20144;-78
2023/01/23 01:32:44;;;;;;;32.58;12.23;;;;;;;4.86;76.78;101675.56;5030444;28;20097;-78
2023/01/23 01:35:11;;;;;;;17.48;11.18;;;;;;;4.83;76.89;101671.22;5030294;28;20061;-78
2023/01/23 01:37:39;;;;;;;15.20;10.82;;;;;;;4.83;76.59;101685.13;5030432;28;20071;-78
2023/01/23 01:40:11;;;;;;;13.77;10.43;;;;;;;4.82;76.90;101695.56;5030487;28;20096;-78
2023/01/23 01:42:40;;;;;;;14.88;10.18;;;;;;;4.81;76.86;101694.69;5030293;28;20053;-78
2023/01/23 01:45:45;;;;;;;32.83;10.88;;;;;;;4.78;76.38;101696.44;5034082;28;20049;-79
2023/01/23 01:48:13;;;;;;;34.75;10.48;;;;;;;4.81;76.76;101693.81;5034152;28;20049;-79
2023/01/23 01:50:40;;;;;;;24.75;11.00;;;;;;;4.82;77.09;101700.78;5034509;28;20057;-78
2023/01/23 01:53:07;;;;;;;34.05;10.70;;;;;;;4.82;76.97;101700.78;5034355;28;20157;-79
2023/01/23 01:55:33;;;;;;;17.77;12.40;;;;;;;4.83;77.28;101703.38;5034215;28;20390;-79
2023/01/23 01:58:00;;;;;;;33.22;11.88;;;;;;;4.85;77.23;101699.94;5034262;28;20132;-79
2023/01/23 02:00:27;;;;;;;39.65;12.88;;;;;;;4.86;77.50;101697.28;5034256;28;20053;-79
2023/01/23 02:03:00;;;;;;;43.10;14.43;;;;;;;4.87;77.11;101698.16;5034081;28;20053;-79
2023/01/23 02:05:28;;;;;;;;;;;;;;;4.89;76.50;101694.69;5034529;28;20057;-80
2023/01/23 02:08:16;;;;;;;39.00;11.90;;;;;;;4.92;76.67;101691.19;5033785;28;19921;-79
2023/01/23 02:10:43;;;;;;;48.47;13.57;;;;;;;4.93;77.22;101693.81;5034046;28;20057;-79
2023/01/23 02:13:34;;;;;;;58.97;13.50;;;;;;;4.88;76.40;101690.34;5034019;28;20426;-79
2023/01/23 02:16:08;;;;;;;92.70;15.75;;;;;;;4.89;76.78;101689.47;5016169;28;20564;-79
2023/01/23 02:18:43;;;;;;;47.47;13.38;;;;;;;4.88;76.57;101689.47;5034069;28;20064;-79
2023/01/23 02:21:12;;;;;;;27.50;13.23;;;;;;;4.88;76.75;101692.94;5033894;28;20119;-78
2023/01/23 02:24:03;;;;;;;37.95;13.75;;;;;;;4.86;76.60;101692.06;5033746;28;20049;-79
2023/01/23 02:26:36;;;;;;;18.42;12.43;;;;;;;4.88;76.69;101694.69;5033929;28;20391;-79
2023/01/23 02:29:04;;;;;;;17.92;11.48;;;;;;;4.87;76.79;101685.13;5016273;28;20089;-79
2023/01/23 02:31:31;;;;;;;36.03;12.15;;;;;;;4.86;76.79;101686.00;5033994;28;20112;-79
2023/01/23 02:33:59;;;;;;;33.97;12.10;;;;;;;4.85;76.92;101681.66;5033582;28;20045;-79
2023/01/23 02:36:35;;;;;;;20.98;11.38;;;;;;;4.82;76.59;101690.34;5033771;28;20096;-78
2023/01/23 02:39:05;;;;;;;16.25;10.48;;;;;;;4.82;77.09;101685.13;5016010;28;20057;-79
2023/01/23 02:41:44;;;;;;;49.95;12.13;;;;;;;4.79;76.75;101687.75;5033418;28;20558;-78
2023/01/23 02:44:13;;;;;;;34.42;11.25;;;;;;;4.79;77.11;101675.56;5033581;28;20107;-78
2023/01/23 02:46:40;;;;;;;32.30;11.38;;;;;;;4.80;77.02;101682.53;5033283;28;20057;-79
2023/01/23 02:49:06;;;;;;;18.38;11.25;;;;;;;4.80;77.31;101672.09;5033283;28;20057;-79
2023/01/23 02:51:33;;;;;;;15.88;11.07;;;;;;;4.80;77.29;101681.66;5033281;28;20413;-80
2023/01/23 02:54:00;;;;;;;31.73;12.43;;;;;;;4.81;77.49;101673.81;5033241;28;20061;-79
2023/01/23 02:56:27;;;;;;;23.88;11.18;;;;;;;4.80;77.25;101676.44;5032212;28;20057;-79
2023/01/23 03:01:39;;;;;;;57.17;11.77;;;;;;;4.81;77.40;101680.78;5033173;28;20057;-80
2023/01/23 03:04:06;;;;;;;18.20;11.30;;;;;;;4.80;77.29;101684.25;5015171;28;20140;-79
2023/01/23 03:06:37;;;;;;;27.67;11.23;;;;;;;4.78;77.59;101684.25;5033089;28;20053;-77
2023/01/23 03:09:07;;;;;;;32.35;11.23;;;;;;;4.78;77.26;101692.09;5033188;28;20231;-80
2023/01/23 03:11:36;;;;;;;25.35;11.13;;;;;;;4.77;77.38;101685.13;5032934;28;20140;-79
2023/01/23 03:14:03;;;;;;;37.70;11.10;;;;;;;4.78;77.42;101692.09;5014922;28;20721;-78
2023/01/23 03:16:29;;;;;;;24.15;11.43;;;;;;;4.77;77.44;101692.09;5015132;28;20059;-79
2023/01/23 03:18:57;;;;;;;23.27;10.30;;;;;;;4.78;77.62;101699.91;5032491;28;20589;-79
2023/01/23 03:21:24;;;;;;;36.92;11.73;;;;;;;4.79;77.63;101693.81;5032876;28;20132;-78
2023/01/23 03:23:50;;;;;;;17.77;11.48;;;;;;;4.81;77.64;101697.31;5032508;28;20049;-79
2023/01/23 03:26:17;;;;;;;34.95;12.70;;;;;;;4.81;77.48;101702.53;5032476;28;20054;-78
2023/01/23 03:31:28;;;;;;;19.38;12.02;;;;;;;4.83;77.55;101697.31;5032625;28;20135;-79
2023/01/23 03:33:56;;;;;;;101.47;17.60;;;;;;;4.83;77.61;101698.16;5032455;28;20386;-78
2023/01/23 03:36:22;;;;;;;67.35;12.52;;;;;;;4.85;77.40;101700.78;5032492;28;20057;-78
2023/01/23 03:41:35;;;;;;;87.55;13.55;;;;;;;4.86;77.32;101702.50;5032429;28;20057;-78
2023/01/23 03:44:02;;;;;;;26.05;11.40;;;;;;;4.87;77.54;101695.56;5032452;28;20061;-79
2023/01/23 03:46:28;;;;;;;30.23;11.90;;;;;;;4.86;77.44;101701.66;5032213;28;20115;-78
2023/01/23 03:48:55;;;;;;;18.92;11.30;;;;;;;4.85;77.48;101703.38;5032097;28;20464;-77
2023/01/23 03:51:21;;;;;;;27.95;11.90;;;;;;;4.86;77.14;101701.66;5032356;28;20064;-78
2023/01/23 03:53:48;;;;;;;29.60;11.18;;;;;;;4.83;77.23;101713.81;5032209;28;20097;-79
2023/01/23 03:56:14;;;;;;;30.33;11.45;;;;;;;4.83;77.70;101708.59;5014168;28;20053;-78
2023/01/23 03:58:41;;;;;;;24.20;10.75;;;;;;;4.82;77.45;101704.25;5031781;28;20087;-79
2023/01/23 04:01:08;;;;;;;24.48;11.88;;;;;;;4.82;77.86;101706.88;5032147;28;20140;-78
2023/01/23 04:03:35;;;;;;;25.77;11.65;;;;;;;4.83;77.42;101708.59;5031971;28;20060;-78
2023/01/23 04:06:02;;;;;;;17.85;11.57;;;;;;;4.82;77.52;101706.88;5031374;28;20484;-79
2023/01/23 04:08:28;;;;;;;25.75;12.57;;;;;;;4.82;77.72;101704.25;5031829;28;20063;-80
2023/01/23 04:11:06;;;;;;;26.77;12.13;;;;;;;4.80;77.33;101716.47;5031696;28;20053;-78
2023/01/23 04:16:07;;;;;;;42.15;12.60;;;;;;;4.85;77.79;101710.38;5073182;22;20163;-79
2023/01/23 04:18:34;;;;;;;37.88;12.00;;;;;;;4.85;77.66;101719.03;5030379;28;20119;-79
2023/01/23 04:21:01;;;;;;;44.38;11.93;;;;;;;4.85;77.40;101718.19;5013319;28;20053;-79
2023/01/23 04:23:27;;;;;;;28.42;10.77;;;;;;;4.82;77.52;101717.31;5030828;28;20115;-78
2023/01/23 04:25:53;;;;;;;22.55;11.48;;;;;;;4.82;77.74;101717.31;5030628;28;20053;-79
2023/01/23 04:28:20;;;;;;;35.00;11.50;;;;;;;4.83;77.67;101715.59;5030753;28;20139;-79
2023/01/23 04:30:48;;;;;;;25.38;11.07;;;;;;;4.86;77.75;101717.31;5012939;28;20503;-80
2023/01/23 04:33:14;;;;;;;34.17;11.43;;;;;;;4.85;77.48;101721.66;5030823;28;20053;-81
2023/01/23 04:35:55;;;;;;;33.72;11.13;;;;;;;4.81;77.48;101720.78;5030826;28;20061;-80
2023/01/23 04:38:23;;;;;;;28.23;11.27;;;;;;;4.82;77.53;101714.69;5030865;28;20496;-79
2023/01/23 04:40:50;;;;;;;29.98;11.43;;;;;;;4.83;77.35;101726.88;5030489;28;20088;-80
2023/01/23 04:43:16;;;;;;;39.20;11.27;;;;;;;4.83;77.80;101723.41;5030623;28;20053;-80
2023/01/23 04:45:44;;;;;;;43.35;11.30;;;;;;;4.81;77.40;101720.78;5012926;28;20064;-79
2023/01/23 04:48:11;;;;;;;31.48;12.00;;;;;;;4.82;77.63;101725.13;5030505;28;20136;-79
2023/01/23 04:50:38;;;;;;;29.83;11.30;;;;;;;4.81;77.28;101720.78;5012792;28;20065;-79
2023/01/23 04:53:05;;;;;;;34.15;11.60;;;;;;;4.81;77.52;101727.75;5030291;28;20045;-79
2023/01/23 04:55:32;;;;;;;33.47;10.82;;;;;;;4.79;77.37;101719.06;5030187;28;20057;-79
2023/01/23 04:58:00;;;;;;;42.60;11.90;;;;;;;4.78;77.62;101720.78;5030220;28;20127;-79
2023/01/23 05:00:28;;;;;;;38.08;11.32;;;;;;;4.77;77.58;101719.06;5012602;28;20057;-80
2023/01/23 05:02:55;;;;;;;18.58;11.13;;;;;;;4.76;77.67;101725.16;5030005;28;20089;-79
2023/01/23 05:05:22;;;;;;;18.27;10.93;;;;;;;4.76;77.55;101730.38;5029728;28;20057;-79
2023/01/23 05:07:50;;;;;;;41.90;11.23;;;;;;;4.76;77.71;101729.50;5029894;28;20115;-80
2023/01/23 05:10:17;;;;;;;73.28;11.73;;;;;;;4.76;78.00;101730.38;5030204;28;20053;-80
2023/01/23 05:12:44;;;;;;;91.75;13.43;;;;;;;4.77;77.84;101734.72;5030224;28;20065;-80
2023/01/23 05:15:11;;;;;;;76.45;14.13;;;;;;;4.78;77.66;101736.44;5012090;28;20140;-79
2023/01/23 05:17:37;;;;;;;85.45;12.55;;;;;;;4.77;77.68;101737.31;5029230;28;20053;-79
2023/01/23 05:20:05;;;;;;;17.95;10.35;;;;;;;4.78;77.71;101736.44;5029955;28;20103;-80
2023/01/23 05:22:32;;;;;;;17.90;10.20;;;;;;;4.77;77.80;101745.16;5030090;28;20503;-79
2023/01/23 05:24:59;;;;;;;17.48;11.18;;;;;;;4.77;77.67;101749.50;5012197;28;20061;-80
2023/01/23 05:27:25;;;;;;;16.80;10.73;;;;;;;4.76;77.74;101742.53;5029757;28;20065;-79
2023/01/23 05:29:51;;;;;;;19.40;11.13;;;;;;;4.76;77.77;101763.41;5029939;28;20075;-79
2023/01/23 05:32:18;;;;;;;21.45;11.60;;;;;;;4.76;77.50;101760.81;5012246;28;20100;-80
2023/01/23 05:34:44;;;;;;;16.75;10.80;;;;;;;4.75;77.80;101761.69;5029619;28;20080;-78
2023/01/23 05:37:11;;;;;;;19.52;12.07;;;;;;;4.76;77.99;101766.91;5029792;28;20084;-80
2023/01/23 05:39:37;;;;;;;18.98;12.23;;;;;;;4.77;77.71;101765.13;5030125;28;20058;-80
2023/01/23 05:42:04;;;;;;;21.35;12.48;;;;;;;4.79;77.84;101768.63;5029751;28;20053;-80
2023/01/23 05:44:30;;;;;;;22.17;12.70;;;;;;;4.79;77.77;101764.28;5029648;28;20131;-80
2023/01/23 05:46:56;;;;;;;18.50;12.63;;;;;;;4.79;77.73;101766.88;5011938;28;20494;-79
2023/01/23 05:49:23;;;;;;;18.85;12.90;;;;;;;4.81;77.94;101772.09;5012077;28;20421;-80
2023/01/23 05:51:49;;;;;;;19.65;12.60;;;;;;;4.82;77.78;101769.50;5029589;28;20089;-80
2023/01/23 05:54:16;;;;;;;20.17;13.00;;;;;;;4.83;77.63;101771.22;5029763;28;20058;-79
2023/01/23 05:56:42;;;;;;;21.00;12.40;;;;;;;4.84;77.56;101774.72;5011535;28;20462;-79
2023/01/23 05:59:08;;;;;;;19.92;12.73;;;;;;;4.83;77.68;101776.44;5028947;28;20057;-79
2023/01/23 06:01:35;;;;;;;19.95;13.13;;;;;;;4.86;77.63;101780.78;5028371;28;20057;-79
2023/01/23 06:04:01;;;;;;;22.42;13.32;;;;;;;4.87;77.75;101781.66;5029509;28;20049;-79
2023/01/23 06:06:28;;;;;;;21.45;12.82;;;;;;;4.88;77.66;101779.06;5029612;28;20581;-80
2023/01/23 06:08:54;;;;;;;19.77;12.50;;;;;;;4.89;77.57;101786.00;5029857;28;20081;-79
2023/01/23 06:11:20;;;;;;;20.95;13.73;;;;;;;4.89;77.69;101795.56;5029634;28;20061;-80
2023/01/23 06:13:55;;;;;;;21.65;13.88;;;;;;;4.90;77.50;101789.50;5029818;28;20053;-81
2023/01/23 06:16:26;;;;;;;22.27;14.50;;;;;;;4.90;77.53;101795.56;5029337;28;20089;-81
2023/01/23 06:18:53;;;;;;;22.08;13.70;;;;;;;4.89;77.43;101790.34;5029240;28;20504;-81
2023/01/23 06:21:19;;;;;;;20.35;13.88;;;;;;;4.89;77.41;101796.47;5023213;28;20061;-80
2023/01/23 06:23:46;;;;;;;20.23;13.05;;;;;;;4.89;77.33;101790.34;5028161;28;20119;-80
2023/01/23 06:26:12;;;;;;;19.88;13.27;;;;;;;4.91;77.58;101796.47;5026899;28;20053;-80
2023/01/23 06:28:39;;;;;;;21.02;12.85;;;;;;;4.91;77.39;101791.25;5027953;28;20107;-80
2023/01/23 06:31:08;;;;;;;18.35;12.40;;;;;;;4.92;77.65;101795.59;5031954;28;20115;-80
2023/01/23 06:33:35;;;;;;;19.58;12.98;;;;;;;4.92;77.74;101804.28;5032548;28;20064;-80
2023/01/23 06:36:05;;;;;;;18.30;12.23;;;;;;;4.94;77.67;101799.06;5031073;28;20080;-80
2023/01/23 06:38:31;;;;;;;20.92;12.77;;;;;;;4.95;77.47;101813.84;5029818;28;20053;-81
2023/01/23 06:40:58;;;;;;;18.42;12.77;;;;;;;4.96;76.87;101805.16;5029313;28;20139;-80
2023/01/23 06:43:25;;;;;;;18.92;13.10;;;;;;;4.96;77.55;101810.38;5027951;28;20053;-80
2023/01/23 06:45:51;;;;;;;19.98;12.63;;;;;;;4.95;77.30;101813.84;5032240;28;20062;-80
2023/01/23 06:48:18;;;;;;;20.02;13.13;;;;;;;4.97;77.18;101813.88;5014945;28;20107;-80
2023/01/23 06:50:44;;;;;;;21.25;13.57;;;;;;;4.97;77.37;101808.66;5031977;28;20057;-80
2023/01/23 06:53:17;;;;;;;21.30;13.32;;;;;;;4.95;76.90;101822.56;5032653;28;20107;-80
2023/01/23 06:55:43;;;;;;;23.30;14.93;;;;;;;4.98;77.19;101820.81;5032475;28;20137;-80
2023/01/23 06:58:10;;;;;;;18.65;13.63;;;;;;;4.97;77.63;101821.69;5032199;28;20061;-80
2023/01/23 07:00:36;;;;;;;26.95;13.82;;;;;;;4.98;77.18;101820.81;5015118;28;20061;-80
2023/01/23 07:03:03;;;;;;;23.55;14.23;;;;;;;4.97;76.93;101825.16;5027409;28;20116;-80
2023/01/23 07:05:30;;;;;;;24.13;14.80;;;;;;;4.96;77.29;101831.25;5027849;28;20057;-80
2023/01/23 07:07:56;;;;;;;26.08;14.98;;;;;;;4.95;77.28;101829.53;5024380;28;20061;-80
2023/01/23 07:10:23;;;;;;;22.42;14.38;;;;;;;4.95;77.13;101834.75;5032509;28;20458;-80
2023/01/23 07:12:49;;;;;;;26.15;14.77;;;;;;;4.95;77.23;101832.13;5031989;28;20060;-80
2023/01/23 07:15:16;;;;;;;25.85;14.73;;;;;;;4.96;77.13;101831.25;5030831;28;20423;-80
2023/01/23 07:17:42;;;;;;;25.27;14.57;;;;;;;4.94;77.19;101833.84;5031675;28;20056;-80
2023/01/23 07:20:09;;;;;;;24.17;14.60;;;;;;;4.95;77.07;101826.91;5023674;28;20060;-80
2023/01/23 07:22:36;;;;;;;24.05;14.30;;;;;;;4.94;76.96;101828.63;5032105;28;20069;-81
2023/01/23 07:25:02;;;;;;;26.65;15.05;;;;;;;4.93;77.01;101833.84;5031134;28;20061;-80
2023/01/23 07:27:29;;;;;;;24.45;15.07;;;;;;;4.91;77.12;101836.50;5031776;28;20061;-80
2023/01/23 07:29:55;;;;;;;31.58;14.05;;;;;;;4.89;77.27;101830.38;5014289;28;20507;-80
2023/01/23 07:32:21;;;;;;;28.10;15.75;;;;;;;4.90;77.16;101841.69;4999456;28;20093;-80
2023/01/23 07:34:48;;;;;;;28.38;14.75;;;;;;;4.89;77.30;101837.34;5011191;28;20076;-80
2023/01/23 07:37:14;;;;;;;26.00;15.07;;;;;;;4.88;77.46;101844.31;5013902;28;20061;-80
2023/01/23 07:39:41;;;;;;;24.45;14.63;;;;;;;4.89;77.30;101847.78;5031360;28;20474;-80
2023/01/23 07:42:07;;;;;;;23.98;13.73;;;;;;;4.87;77.42;101850.41;5031066;28;20057;-81
2023/01/23 07:44:33;;;;;;;22.20;13.32;;;;;;;4.87;77.40;101854.75;5031601;28;20049;-81
2023/01/23 07:47:00;;;;;;;31.08;15.02;;;;;;;4.87;77.12;101854.75;5031416;28;20057;-80
2023/01/23 07:49:26;;;;;;;24.70;14.13;;;;;;;4.87;77.58;101857.34;5031581;28;20103;-80
2023/01/23 07:51:53;;;;;;;25.30;13.98;;;;;;;4.88;77.90;101861.69;5031472;28;20561;-80
2023/01/23 07:54:19;;;;;;;22.08;14.30;;;;;;;4.88;77.75;101862.56;5031337;28;20458;-80
2023/01/23 07:56:48;;;;;;;23.98;13.68;;;;;;;4.89;77.34;101858.22;5031347;28;20127;-80
2023/01/23 07:59:14;;;;;;;26.27;15.07;;;;;;;4.89;77.53;101864.31;5013864;28;20067;-80
2023/01/23 08:01:41;;;;;;;23.58;14.68;;;;;;;4.90;77.63;101866.03;5031442;28;20053;-81
2023/01/23 08:04:07;;;;;;;22.27;13.73;;;;;;;4.92;77.56;101864.31;5031422;28;20045;-80
2023/01/23 08:06:35;;;;;;;25.63;13.65;;;;;;;4.91;77.36;101859.09;5031072;28;20115;-81
2023/01/23 08:09:01;;;;;;;23.02;13.93;;;;;;;4.90;77.29;101865.19;5031002;28;20067;-81
2023/01/23 08:11:28;;;;;;;23.05;14.13;;;;;;;4.91;77.44;101874.75;5031311;28;20049;-81
2023/01/23 08:13:54;;;;;;;25.67;14.52;;;;;;;4.88;77.52;101873.00;5013400;28;20064;-81
2023/01/23 08:16:21;;;;;;;26.42;14.10;;;;;;;4.90;77.69;101868.66;5030852;28;20057;-81
2023/01/23 08:18:47;;;;;;;24.15;14.10;;;;;;;4.89;77.50;101872.13;5030990;28;20134;-80
2023/01/23 08:21:14;;;;;;;23.58;14.07;;;;;;;4.90;77.50;101875.63;5031009;28;20091;-80
2023/01/23 08:23:40;;;;;;;24.23;13.82;;;;;;;4.89;77.60;101885.19;5030594;28;20092;-81
2023/01/23 08:26:10;;;;;;;22.85;14.15;;;;;;;4.89;77.58;101881.69;5030972;28;20081;-81
2023/01/23 08:28:36;;;;;;;23.20;13.57;;;;;;;4.89;77.62;101877.34;5030844;28;20108;-81
2023/01/23 08:31:06;;;;;;;21.58;13.40;;;;;;;4.89;77.49;101885.19;5030717;28;20496;-80
2023/01/23 08:33:33;;;;;;;24.45;13.98;;;;;;;4.90;77.56;101889.53;5030807;28;20136;-80
2023/01/23 08:36:00;;;;;;;25.08;14.35;;;;;;;4.90;77.71;101892.13;5030460;28;20474;-80
2023/01/23 08:38:27;;;;;;;19.17;13.52;;;;;;;4.92;77.73;101893.03;5030730;28;20087;-80
2023/01/23 08:40:57;;;;;;;24.67;14.65;;;;;;;4.92;77.71;101889.53;5030609;28;20053;-80
2023/01/23 08:43:23;;;;;;;19.85;13.75;;;;;;;4.93;77.60;101888.66;5030860;28;20057;-80
2023/01/23 08:45:52;;;;;;;24.40;14.73;;;;;;;4.92;77.75;101890.41;5012667;28;20132;-80
2023/01/23 08:48:20;;;;;;;27.08;14.65;;;;;;;4.94;77.51;101883.44;5030413;28;20096;-80
2023/01/23 08:50:47;;;;;;;23.63;16.02;;;;;;;4.94;77.67;101890.44;5031018;28;20092;-80
2023/01/23 08:53:13;;;;;;;22.40;13.93;;;;;;;4.94;77.47;101900.88;5030645;28;20368;-80
2023/01/23 08:55:40;;;;;;;21.88;14.68;;;;;;;4.94;77.35;101899.09;5030185;28;20057;-81
2023/01/23 08:58:08;;;;;;;21.98;14.05;;;;;;;4.93;77.80;101905.19;5030218;28;20504;-80
2023/01/23 09:00:35;;;;;;;24.00;15.52;;;;;;;4.93;77.75;101905.19;5030227;28;20081;-80
2023/01/23 09:03:02;;;;;;;22.25;14.30;;;;;;;4.94;77.86;101899.09;5030288;28;20662;-80
2023/01/23 09:05:29;;;;;;;24.52;15.20;;;;;;;4.95;77.65;101893.03;5012502;28;20054;-80
2023/01/23 09:07:57;;;;;;;22.05;14.82;;;;;;;4.96;77.41;101899.13;5030298;28;20320;-81
2023/01/23 09:10:26;;;;;;;22.88;14.63;;;;;;;4.96;77.78;101901.72;5030200;28;20111;-80
2023/01/23 09:12:53;;;;;;;20.80;13.95;;;;;;;4.97;77.70;101906.06;5012643;28;20115;-80
2023/01/23 09:15:21;;;;;;;21.10;14.32;;;;;;;4.99;77.90;101903.47;5029791;28;20499;-80
2023/01/23 09:17:48;;;;;;;21.23;14.57;;;;;;;4.99;77.70;101908.69;5012240;28;20061;-81
2023/01/23 09:20:15;;;;;;;23.08;14.48;;;;;;;4.99;77.80;101909.56;5030177;28;20061;-80
2023/01/23 09:22:41;;;;;;;24.52;14.85;;;;;;;5.01;77.65;101914.78;5030350;28;20103;-81
2023/01/23 09:25:08;;;;;;;20.20;13.85;;;;;;;5.01;77.67;101910.41;5029770;28;20116;-80
2023/01/23 09:27:35;;;;;;;20.73;14.27;;;;;;;5.03;77.61;101913.03;5029913;28;20107;-80
2023/01/23 09:30:01;;;;;;;23.65;14.63;;;;;;;5.04;77.74;101912.16;5012350;28;20107;-81
2023/01/23 09:32:27;;;;;;;20.73;14.35;;;;;;;5.05;77.63;101903.50;5029720;28;20565;-80
2023/01/23 09:34:54;;;;;;;21.15;14.02;;;;;;;5.06;77.70;101908.72;5029759;28;20088;-80
2023/01/23 09:37:20;;;;;;;22.45;14.73;;;;;;;5.08;77.92;101916.50;5029737;28;20135;-80
2023/01/23 09:39:47;;;;;;;20.83;14.43;;;;;;;5.08;77.76;101909.56;5029923;28;20668;-80
2023/01/23 09:42:17;;;;;;;19.70;13.98;;;;;;;5.08;77.28;101922.63;5029590;28;20468;-80
2023/01/23 09:44:49;;;;;;;24.63;13.80;;;;;;;5.10;77.36;101909.56;5029554;28;20058;-80
2023/01/23 09:47:30;;;;;;;23.15;13.93;;;;;;;5.08;76.93;101924.34;5029761;28;20068;-80
2023/01/23 09:50:18;;;;;;;19.48;12.70;;;;;;;5.09;76.93;101926.13;5029870;28;20111;-79
2023/01/23 09:52:53;;;;;;;19.30;13.85;;;;;;;5.11;77.21;101921.75;5012528;28;20148;-80
2023/01/23 09:55:42;;;;;;;21.17;13.80;;;;;;;5.08;76.46;101926.97;5029401;28;20107;-80
2023/01/23 09:58:19;;;;;;;18.10;12.55;;;;;;;5.05;76.72;101927.81;5029636;28;20053;-81
2023/01/23 10:00:46;;;;;;;19.83;13.18;;;;;;;5.05;77.47;101932.19;5012193;28;20574;-80
2023/01/23 10:03:15;;;;;;;18.77;12.93;;;;;;;5.02;77.51;101927.84;5011970;28;20057;-80
2023/01/23 10:06:18;;;;;;;20.33;13.80;;;;;;;4.96;76.86;101922.59;5032344;28;20058;-81
2023/01/23 10:09:22;;;;;;;18.17;12.52;;;;;;;4.98;77.12;101926.09;5033621;28;20073;-80
2023/01/23 10:12:22;;;;;;;20.15;13.57;;;;;;;4.97;77.01;101932.16;5015619;28;20077;-80
2023/01/23 10:17:34;;;;;;;20.20;13.38;;;;;;;4.99;77.75;101925.22;5032005;28;20084;-75
2023/01/23 10:20:16;;;;;;;18.80;13.13;;;;;;;4.97;77.49;101924.34;5034008;28;20050;-75
2023/01/23 10:23:01;;;;;;;22.42;14.15;;;;;;;5.01;77.91;101920.88;5033831;28;20058;-76
2023/01/23 10:25:34;;;;;;;21.00;14.75;;;;;;;5.05;77.94;101922.59;5033807;28;20068;-77
2023/01/23 10:28:17;;;;;;;23.60;14.43;;;;;;;5.06;77.72;101921.75;5033794;28;20148;-76
2023/01/23 10:30:48;;;;;;;20.40;14.13;;;;;;;5.13;78.35;101911.31;5033801;28;20058;-76
2023/01/23 10:33:17;;;;;;;23.23;15.02;;;;;;;5.18;78.53;101909.56;5033634;28;20409;-79
2023/01/23 10:35:52;;;;;;;22.88;15.07;;;;;;;5.20;78.34;101911.31;5016166;28;20143;-76
2023/01/23 10:38:45;;;;;;;23.20;15.27;;;;;;;5.21;77.32;101912.19;5033621;28;20057;-75
2023/01/23 10:41:14;;;;;;;20.98;14.60;;;;;;;5.26;77.87;101905.22;5033620;28;20107;-76
2023/01/23 10:43:42;;;;;;;22.48;15.15;;;;;;;5.27;78.03;101908.72;5033366;28;20517;-76
2023/01/23 10:46:18;;;;;;;23.20;15.45;;;;;;;5.25;77.47;101907.81;5033538;28;20079;-76
2023/01/23 10:48:44;;;;;;;24.67;16.83;;;;;;;5.26;77.89;101906.94;5033302;28;20497;-76
2023/01/23 10:51:27;;;;;;;24.88;16.52;;;;;;;5.23;77.12;101910.44;5033398;28;20576;-76
2023/01/23 10:54:19;;;;;;;24.08;16.65;;;;;;;5.23;77.04;101907.81;5033482;28;20061;-75
2023/01/23 10:57:06;;;;;;;25.80;16.10;;;;;;;5.25;77.03;101906.09;5033136;28;20057;-76
2023/01/23 10:59:47;;;;;;;24.25;16.02;;;;;;;5.26;77.14;101912.19;5033563;28;20053;-76
2023/01/23 11:02:14;;;;;;;23.95;15.98;;;;;;;5.26;77.98;101915.66;5033279;28;20111;-78
2023/01/23 11:04:43;;;;;;;22.02;15.45;;;;;;;5.26;77.64;101920.00;5033221;28;20144;-75
2023/01/23 11:07:21;;;;;;;23.52;16.63;;;;;;;5.24;77.53;101914.81;5015275;28;20046;-76
2023/01/23 11:09:53;;;;;;;27.55;16.15;;;;;;;5.24;77.60;101906.97;5033325;28;20405;-76
2023/01/23 11:12:25;;;;;;;23.48;16.15;;;;;;;5.26;77.88;101915.66;5033121;28;20089;-76
2023/01/23 11:15:10;;;;;;;23.13;15.43;;;;;;;5.26;76.84;101914.78;5032684;28;20053;-76
2023/01/23 11:17:38;;;;;;;24.85;16.08;;;;;;;5.30;77.82;101922.63;5032095;28;20055;-76
2023/01/23 11:20:26;;;;;;;23.83;15.43;;;;;;;5.28;76.78;101923.50;5032879;28;20502;-76
2023/01/23 11:23:09;;;;;;;23.88;15.77;;;;;;;5.29;77.22;101918.28;5015190;28;20132;-76
2023/01/23 11:25:40;;;;;;;25.25;16.52;;;;;;;5.33;77.77;101925.25;5032821;28;20049;-75
2023/01/23 11:28:28;;;;;;;24.98;15.65;;;;;;;5.32;77.03;101926.13;5032658;28;20068;-76
2023/01/23 11:31:07;;;;;;;25.15;16.52;;;;;;;5.34;77.42;101927.00;5032720;28;20093;-76
2023/01/23 11:33:53;;;;;;;27.08;15.23;;;;;;;5.38;77.54;101924.38;5032531;28;20058;-76
2023/01/23 11:36:41;;;;;;;25.05;15.75;;;;;;;5.38;77.07;101917.41;5032662;28;20053;-76
2023/01/23 11:39:44;;;;;;;25.27;16.30;;;;;;;5.42;77.18;101929.59;5032652;28;20061;-76
2023/01/23 11:42:13;;;;;;;25.27;16.13;;;;;;;5.49;78.08;101927.84;5032385;28;20060;-75